sensor_id;sensor_type;location;lat;lon;timestamp;P1;durP1;ratioP1;P2;durP2;ratioP2
673;SDS011;319;48.764;9.174;2023-09-30T00:13:24;9.30;;;9.10;;
673;SDS011;319;48.764;9.174;2023-09-30T00:19:33;9.70;;;9.50;;
673;SDS011;319;48.764;9.174;2023-09-30T00:25:08;8.80;;;8.60;;
673;SDS011;319;48.764;9.174;2023-09-30T00:40:34;9.30;;;9.10;;
673;SDS011;319;48.764;9.174;2023-09-30T00:43:04;8.97;;;8.77;;
673;SDS011;319;48.764;9.174;2023-09-30T00:49:31;7.90;;;7.70;;
673;SDS011;319;48.764;9.174;2023-09-30T00:52:46;8.50;;;8.30;;
673;SDS011;319;48.764;9.174;2023-09-30T01:17:01;8.50;;;8.30;;
673;SDS011;319;48.764;9.174;2023-09-30T01:26:57;8.97;;;8.77;;
673;SDS011;319;48.764;9.174;2023-09-30T01:30:11;8.73;;;8.53;;
673;SDS011;319;48.764;9.174;2023-09-30T01:32:52;7.87;;;7.67;;
673;SDS011;319;48.764;9.174;2023-09-30T01:38:24;8.63;;;8.43;;
673;SDS011;319;48.764;9.174;2023-09-30T01:41:09;7.90;;;7.70;;
673;SDS011;319;48.764;9.174;2023-09-30T01:53:42;8.20;;;8.00;;
673;SDS011;319;48.764;9.174;2023-09-30T01:56:26;8.80;;;8.60;;
673;SDS011;319;48.764;9.174;2023-09-30T02:06:12;9.00;;;8.80;;
673;SDS011;319;48.764;9.174;2023-09-30T02:16:04;8.20;;;8.00;;
673;SDS011;319;48.764;9.174;2023-09-30T02:22:28;8.90;;;8.70;;
673;SDS011;319;48.764;9.174;2023-09-30T02:28:17;8.47;;;8.27;;
673;SDS011;319;48.764;9.174;2023-09-30T02:36:48;4.60;;;4.50;;
673;SDS011;319;48.764;9.174;2023-09-30T02:42:51;9.40;;;9.20;;
673;SDS011;319;48.764;9.174;2023-09-30T02:45:36;8.93;;;8.73;;
673;SDS011;319;48.764;9.174;2023-09-30T02:48:26;4.43;;;4.33;;
673;SDS011;319;48.764;9.174;2023-09-30T02:51:02;4.43;;;4.33;;
673;SDS011;319;48.764;9.174;2023-09-30T03:42:31;9.50;;;9.30;;
673;SDS011;319;48.764;9.174;2023-09-30T04:06:48;7.33;;;7.13;;
673;SDS011;319;48.764;9.174;2023-09-30T04:18:51;8.17;;;7.97;;
673;SDS011;319;48.764;9.174;2023-09-30T04:21:32;7.43;;;7.23;;
673;SDS011;319;48.764;9.174;2023-09-30T04:31:10;6.67;;;6.47;;
673;SDS011;319;48.764;9.174;2023-09-30T04:41:41;8.20;;;8.00;;
673;SDS011;319;48.764;9.174;2023-09-30T05:18:55;1.00;;;1.00;;
673;SDS011;319;48.764;9.174;2023-09-30T05:21:32;0.90;;;0.90;;
673;SDS011;319;48.764;9.174;2023-09-30T05:24:16;1.00;;;1.00;;
673;SDS011;319;48.764;9.174;2023-09-30T05:30:00;1.00;;;1.00;;
673;SDS011;319;48.764;9.174;2023-09-30T06:03:36;0.90;;;0.90;;
673;SDS011;319;48.764;9.174;2023-09-30T06:07:40;0.90;;;0.90;;
673;SDS011;319;48.764;9.174;2023-09-30T06:26:40;0.90;;;0.90;;
673;SDS011;319;48.764;9.174;2023-09-30T06:46:28;8.83;;;8.63;;
673;SDS011;319;48.764;9.174;2023-09-30T06:48:58;8.50;;;8.30;;
673;SDS011;319;48.764;9.174;2023-09-30T06:51:25;8.93;;;8.73;;
673;SDS011;319;48.764;9.174;2023-09-30T07:10:58;6.30;;;6.20;;
673;SDS011;319;48.764;9.174;2023-09-30T07:37:23;8.20;;;8.00;;
673;SDS011;319;48.764;9.174;2023-09-30T07:40:09;8.20;;;8.00;;
673;SDS011;319;48.764;9.174;2023-09-30T08:50:46;8.07;;;7.87;;
673;SDS011;319;48.764;9.174;2023-09-30T08:54:13;7.60;;;7.40;;
673;SDS011;319;48.764;9.174;2023-09-30T08:57:21;7.70;;;7.50;;
673;SDS011;319;48.764;9.174;2023-09-30T09:00:29;7.93;;;7.73;;
673;SDS011;319;48.764;9.174;2023-09-30T09:03:27;6.53;;;6.33;;
673;SDS011;319;48.764;9.174;2023-09-30T09:06:43;8.00;;;7.80;;
673;SDS011;319;48.764;9.174;2023-09-30T09:10:37;0.80;;;0.80;;
673;SDS011;319;48.764;9.174;2023-09-30T09:13:26;0.90;;;0.90;;
673;SDS011;319;48.764;9.174;2023-09-30T09:16:17;0.80;;;0.80;;
673;SDS011;319;48.764;9.174;2023-09-30T09:19:00;0.83;;;0.83;;
673;SDS011;319;48.764;9.174;2023-09-30T09:25:19;0.90;;;0.90;;
673;SDS011;319;48.764;9.174;2023-09-30T09:42:07;0.90;;;0.90;;
673;SDS011;319;48.764;9.174;2023-09-30T09:45:28;0.90;;;0.90;;
673;SDS011;319;48.764;9.174;2023-09-30T09:48:51;0.90;;;0.90;;
673;SDS011;319;48.764;9.174;2023-09-30T09:52:09;3.43;;;3.33;;
673;SDS011;319;48.764;9.174;2023-09-30T09:54:52;0.90;;;0.90;;
673;SDS011;319;48.764;9.174;2023-09-30T09:58:08;6.57;;;6.37;;
673;SDS011;319;48.764;9.174;2023-09-30T10:01:01;8.50;;;8.30;;
673;SDS011;319;48.764;9.174;2023-09-30T10:06:47;1.00;;;1.00;;
673;SDS011;319;48.764;9.174;2023-09-30T10:10:38;1.90;;;1.90;;
673;SDS011;319;48.764;9.174;2023-09-30T10:27:59;0.90;;;0.90;;
673;SDS011;319;48.764;9.174;2023-09-30T10:31:17;0.90;;;0.90;;
673;SDS011;319;48.764;9.174;2023-09-30T10:35:00;0.80;;;0.80;;
673;SDS011;319;48.764;9.174;2023-09-30T10:44:39;0.80;;;0.80;;
673;SDS011;319;48.764;9.174;2023-09-30T10:51:55;0.80;;;0.80;;
673;SDS011;319;48.764;9.174;2023-09-30T10:54:04;0.90;;;0.90;;
673;SDS011;319;48.764;9.174;2023-09-30T11:00:26;0.70;;;0.70;;
673;SDS011;319;48.764;9.174;2023-09-30T11:03:48;0.80;;;0.80;;
673;SDS011;319;48.764;9.174;2023-09-30T11:06:28;0.80;;;0.80;;
673;SDS011;319;48.764;9.174;2023-09-30T11:09:01;0.80;;;0.80;;
673;SDS011;319;48.764;9.174;2023-09-30T11:11:58;0.70;;;0.70;;
673;SDS011;319;48.764;9.174;2023-09-30T11:15:01;0.90;;;0.90;;
673;SDS011;319;48.764;9.174;2023-09-30T11:17:40;0.90;;;0.90;;
673;SDS011;319;48.764;9.174;2023-09-30T11:20:09;0.80;;;0.80;;
673;SDS011;319;48.764;9.174;2023-09-30T11:22:37;0.80;;;0.80;;
673;SDS011;319;48.764;9.174;2023-09-30T11:30:55;0.80;;;0.80;;
673;SDS011;319;48.764;9.174;2023-09-30T11:33:35;0.80;;;0.80;;
673;SDS011;319;48.764;9.174;2023-09-30T11:39:36;0.90;;;0.90;;
673;SDS011;319;48.764;9.174;2023-09-30T11:42:14;0.87;;;0.87;;
673;SDS011;319;48.764;9.174;2023-09-30T11:45:20;0.80;;;0.80;;
673;SDS011;319;48.764;9.174;2023-09-30T11:48:20;0.90;;;0.90;;
673;SDS011;319;48.764;9.174;2023-09-30T11:51:06;0.80;;;0.80;;
673;SDS011;319;48.764;9.174;2023-09-30T12:00:35;0.90;;;0.90;;
673;SDS011;319;48.764;9.174;2023-09-30T12:03:02;0.90;;;0.90;;
673;SDS011;319;48.764;9.174;2023-09-30T12:05:37;2.10;;;2.10;;
673;SDS011;319;48.764;9.174;2023-09-30T12:08:04;0.90;;;0.90;;
673;SDS011;319;48.764;9.174;2023-09-30T12:10:51;0.80;;;0.80;;
673;SDS011;319;48.764;9.174;2023-09-30T12:13:21;0.80;;;0.80;;
673;SDS011;319;48.764;9.174;2023-09-30T12:15:48;0.90;;;0.90;;
673;SDS011;319;48.764;9.174;2023-09-30T12:18:29;0.80;;;0.80;;
673;SDS011;319;48.764;9.174;2023-09-30T12:21:11;0.80;;;0.80;;
673;SDS011;319;48.764;9.174;2023-09-30T12:23:51;0.80;;;0.80;;
673;SDS011;319;48.764;9.174;2023-09-30T12:26:46;0.80;;;0.80;;
673;SDS011;319;48.764;9.174;2023-09-30T12:29:39;0.80;;;0.80;;
673;SDS011;319;48.764;9.174;2023-09-30T12:32:13;0.80;;;0.80;;
673;SDS011;319;48.764;9.174;2023-09-30T12:34:40;0.80;;;0.80;;
673;SDS011;319;48.764;9.174;2023-09-30T12:37:31;0.80;;;0.80;;
673;SDS011;319;48.764;9.174;2023-09-30T12:40:13;0.80;;;0.80;;
673;SDS011;319;48.764;9.174;2023-09-30T12:43:15;0.80;;;0.80;;
673;SDS011;319;48.764;9.174;2023-09-30T12:45:42;0.70;;;0.70;;
673;SDS011;319;48.764;9.174;2023-09-30T12:48:19;0.80;;;0.80;;
673;SDS011;319;48.764;9.174;2023-09-30T12:51:28;0.80;;;0.80;;
673;SDS011;319;48.764;9.174;2023-09-30T12:54:05;0.90;;;0.90;;
673;SDS011;319;48.764;9.174;2023-09-30T12:56:42;0.90;;;0.90;;
673;SDS011;319;48.764;9.174;2023-09-30T12:59:13;0.80;;;0.80;;
673;SDS011;319;48.764;9.174;2023-09-30T13:01:45;0.90;;;0.90;;
673;SDS011;319;48.764;9.174;2023-09-30T13:04:18;0.87;;;0.87;;
673;SDS011;319;48.764;9.174;2023-09-30T13:06:47;0.80;;;0.80;;
673;SDS011;319;48.764;9.174;2023-09-30T13:09:15;0.80;;;0.80;;
673;SDS011;319;48.764;9.174;2023-09-30T13:11:42;0.80;;;0.80;;
673;SDS011;319;48.764;9.174;2023-09-30T13:14:19;0.80;;;0.80;;
673;SDS011;319;48.764;9.174;2023-09-30T13:16:53;0.80;;;0.80;;
673;SDS011;319;48.764;9.174;2023-09-30T13:19:23;0.80;;;0.80;;
673;SDS011;319;48.764;9.174;2023-09-30T13:21:58;0.80;;;0.80;;
673;SDS011;319;48.764;9.174;2023-09-30T13:24:41;0.80;;;0.80;;
673;SDS011;319;48.764;9.174;2023-09-30T13:27:18;0.90;;;0.90;;
673;SDS011;319;48.764;9.174;2023-09-30T13:29:56;0.80;;;0.80;;
673;SDS011;319;48.764;9.174;2023-09-30T13:32:29;0.80;;;0.80;;
673;SDS011;319;48.764;9.174;2023-09-30T13:35:33;0.80;;;0.80;;
673;SDS011;319;48.764;9.174;2023-09-30T13:44:25;0.70;;;0.70;;
673;SDS011;319;48.764;9.174;2023-09-30T13:47:25;0.70;;;0.70;;
673;SDS011;319;48.764;9.174;2023-09-30T13:53:35;0.80;;;0.80;;
673;SDS011;319;48.764;9.174;2023-09-30T13:56:12;0.80;;;0.80;;
673;SDS011;319;48.764;9.174;2023-09-30T13:59:04;0.80;;;0.80;;
673;SDS011;319;48.764;9.174;2023-09-30T14:02:07;0.80;;;0.80;;
673;SDS011;319;48.764;9.174;2023-09-30T14:05:15;0.80;;;0.80;;
673;SDS011;319;48.764;9.174;2023-09-30T14:07:48;0.80;;;0.80;;
673;SDS011;319;48.764;9.174;2023-09-30T14:10:20;0.80;;;0.80;;
673;SDS011;319;48.764;9.174;2023-09-30T14:13:20;0.80;;;0.80;;
673;SDS011;319;48.764;9.174;2023-09-30T14:15:47;0.80;;;0.80;;
673;SDS011;319;48.764;9.174;2023-09-30T14:18:18;0.80;;;0.80;;
673;SDS011;319;48.764;9.174;2023-09-30T14:20:51;0.80;;;0.80;;
673;SDS011;319;48.764;9.174;2023-09-30T14:23:19;0.80;;;0.80;;
673;SDS011;319;48.764;9.174;2023-09-30T14:26:04;0.80;;;0.80;;
673;SDS011;319;48.764;9.174;2023-09-30T14:28:36;0.80;;;0.80;;
673;SDS011;319;48.764;9.174;2023-09-30T14:31:05;0.70;;;0.70;;
673;SDS011;319;48.764;9.174;2023-09-30T14:33:52;0.80;;;0.80;;
673;SDS011;319;48.764;9.174;2023-09-30T14:36:47;0.70;;;0.70;;
673;SDS011;319;48.764;9.174;2023-09-30T14:39:22;0.80;;;0.80;;
673;SDS011;319;48.764;9.174;2023-09-30T14:41:56;0.80;;;0.80;;
673;SDS011;319;48.764;9.174;2023-09-30T14:44:26;0.80;;;0.80;;
673;SDS011;319;48.764;9.174;2023-09-30T14:46:54;0.80;;;0.80;;
673;SDS011;319;48.764;9.174;2023-09-30T14:49:23;0.80;;;0.80;;
673;SDS011;319;48.764;9.174;2023-09-30T14:51:58;0.80;;;0.80;;
673;SDS011;319;48.764;9.174;2023-09-30T14:54:33;0.70;;;0.70;;
673;SDS011;319;48.764;9.174;2023-09-30T14:57:08;0.80;;;0.80;;
673;SDS011;319;48.764;9.174;2023-09-30T15:00:08;0.80;;;0.80;;
673;SDS011;319;48.764;9.174;2023-09-30T15:03:13;0.80;;;0.80;;
673;SDS011;319;48.764;9.174;2023-09-30T15:05:47;0.80;;;0.80;;
673;SDS011;319;48.764;9.174;2023-09-30T15:08:25;0.80;;;0.80;;
673;SDS011;319;48.764;9.174;2023-09-30T15:10:51;0.90;;;0.90;;
673;SDS011;319;48.764;9.174;2023-09-30T15:13:20;0.90;;;0.90;;
673;SDS011;319;48.764;9.174;2023-09-30T15:16:14;0.80;;;0.80;;
673;SDS011;319;48.764;9.174;2023-09-30T15:18:57;0.80;;;0.80;;
673;SDS011;319;48.764;9.174;2023-09-30T15:21:39;0.73;;;0.73;;
673;SDS011;319;48.764;9.174;2023-09-30T15:24:11;0.80;;;0.80;;
673;SDS011;319;48.764;9.174;2023-09-30T15:26:54;0.90;;;0.90;;
673;SDS011;319;48.764;9.174;2023-09-30T15:29:22;0.90;;;0.90;;
673;SDS011;319;48.764;9.174;2023-09-30T15:31:49;0.90;;;0.90;;
673;SDS011;319;48.764;9.174;2023-09-30T15:34:18;0.80;;;0.80;;
673;SDS011;319;48.764;9.174;2023-09-30T15:36:52;1.53;;;1.53;;
673;SDS011;319;48.764;9.174;2023-09-30T15:39:20;0.83;;;0.83;;
673;SDS011;319;48.764;9.174;2023-09-30T15:41:56;0.90;;;0.90;;
673;SDS011;319;48.764;9.174;2023-09-30T15:44:35;0.90;;;0.90;;
673;SDS011;319;48.764;9.174;2023-09-30T15:47:17;0.90;;;0.90;;
673;SDS011;319;48.764;9.174;2023-09-30T15:49:55;0.90;;;0.90;;
673;SDS011;319;48.764;9.174;2023-09-30T15:52:27;0.70;;;0.70;;
673;SDS011;319;48.764;9.174;2023-09-30T15:55:00;0.80;;;0.80;;
673;SDS011;319;48.764;9.174;2023-09-30T15:57:47;0.80;;;0.80;;
673;SDS011;319;48.764;9.174;2023-09-30T16:00:22;0.90;;;0.90;;
673;SDS011;319;48.764;9.174;2023-09-30T16:03:04;0.90;;;0.90;;
673;SDS011;319;48.764;9.174;2023-09-30T16:05:39;0.80;;;0.80;;
673;SDS011;319;48.764;9.174;2023-09-30T16:08:22;0.90;;;0.90;;
673;SDS011;319;48.764;9.174;2023-09-30T16:10:57;0.80;;;0.80;;
673;SDS011;319;48.764;9.174;2023-09-30T16:13:27;0.90;;;0.90;;
673;SDS011;319;48.764;9.174;2023-09-30T16:15:54;0.80;;;0.80;;
673;SDS011;319;48.764;9.174;2023-09-30T16:18:22;0.80;;;0.80;;
673;SDS011;319;48.764;9.174;2023-09-30T16:20:48;0.80;;;0.80;;
673;SDS011;319;48.764;9.174;2023-09-30T16:23:31;0.80;;;0.80;;
673;SDS011;319;48.764;9.174;2023-09-30T16:26:17;0.90;;;0.90;;
673;SDS011;319;48.764;9.174;2023-09-30T16:28:44;0.80;;;0.80;;
673;SDS011;319;48.764;9.174;2023-09-30T16:31:10;0.80;;;0.80;;
673;SDS011;319;48.764;9.174;2023-09-30T16:33:37;0.90;;;0.90;;
673;SDS011;319;48.764;9.174;2023-09-30T16:36:04;0.80;;;0.80;;
673;SDS011;319;48.764;9.174;2023-09-30T16:38:31;0.80;;;0.80;;
673;SDS011;319;48.764;9.174;2023-09-30T16:40:58;0.90;;;0.90;;
673;SDS011;319;48.764;9.174;2023-09-30T16:43:30;0.87;;;0.87;;
673;SDS011;319;48.764;9.174;2023-09-30T16:46:00;0.83;;;0.83;;
673;SDS011;319;48.764;9.174;2023-09-30T16:48:27;0.80;;;0.80;;
673;SDS011;319;48.764;9.174;2023-09-30T16:50:54;0.80;;;0.80;;
673;SDS011;319;48.764;9.174;2023-09-30T16:53:21;0.90;;;0.90;;
673;SDS011;319;48.764;9.174;2023-09-30T16:55:50;0.90;;;0.90;;
673;SDS011;319;48.764;9.174;2023-09-30T16:58:17;0.80;;;0.80;;
673;SDS011;319;48.764;9.174;2023-09-30T17:00:46;0.90;;;0.90;;
673;SDS011;319;48.764;9.174;2023-09-30T17:03:16;0.80;;;0.80;;
673;SDS011;319;48.764;9.174;2023-09-30T17:05:43;0.90;;;0.90;;
673;SDS011;319;48.764;9.174;2023-09-30T17:11:00;0.90;;;0.90;;
673;SDS011;319;48.764;9.174;2023-09-30T17:17:07;0.90;;;0.90;;
673;SDS011;319;48.764;9.174;2023-09-30T17:19:34;0.90;;;0.90;;
673;SDS011;319;48.764;9.174;2023-09-30T17:22:01;0.90;;;0.90;;
673;SDS011;319;48.764;9.174;2023-09-30T17:24:30;1.00;;;1.00;;
673;SDS011;319;48.764;9.174;2023-09-30T17:26:57;0.90;;;0.90;;
673;SDS011;319;48.764;9.174;2023-09-30T17:29:24;0.90;;;0.90;;
673;SDS011;319;48.764;9.174;2023-09-30T17:31:51;7.40;;;7.20;;
673;SDS011;319;48.764;9.174;2023-09-30T17:34:19;6.33;;;6.23;;
673;SDS011;319;48.764;9.174;2023-09-30T17:36:47;8.80;;;8.60;;
673;SDS011;319;48.764;9.174;2023-09-30T17:39:16;9.80;;;9.60;;
673;SDS011;319;48.764;9.174;2023-09-30T17:41:43;7.20;;;7.00;;
673;SDS011;319;48.764;9.174;2023-09-30T17:44:13;9.53;;;9.33;;
673;SDS011;319;48.764;9.174;2023-09-30T17:46:40;8.93;;;8.73;;
673;SDS011;319;48.764;9.174;2023-09-30T17:49:10;6.97;;;6.77;;
673;SDS011;319;48.764;9.174;2023-09-30T17:51:38;9.30;;;9.10;;
673;SDS011;319;48.764;9.174;2023-09-30T17:54:07;9.80;;;9.60;;
673;SDS011;319;48.764;9.174;2023-09-30T17:56:35;10.20;;;9.90;;
673;SDS011;319;48.764;9.174;2023-09-30T17:59:02;2.30;;;2.30;;
673;SDS011;319;48.764;9.174;2023-09-30T18:01:29;4.70;;;4.60;;
673;SDS011;319;48.764;9.174;2023-09-30T18:03:55;9.33;;;9.13;;
673;SDS011;319;48.764;9.174;2023-09-30T18:06:22;9.90;;;9.70;;
673;SDS011;319;48.764;9.174;2023-09-30T18:08:50;8.70;;;8.50;;
673;SDS011;319;48.764;9.174;2023-09-30T18:11:17;1.00;;;1.00;;
673;SDS011;319;48.764;9.174;2023-09-30T18:13:44;5.33;;;5.23;;
673;SDS011;319;48.764;9.174;2023-09-30T18:16:11;7.97;;;7.67;;
673;SDS011;319;48.764;9.174;2023-09-30T18:18:38;17.80;;;17.20;;
673;SDS011;319;48.764;9.174;2023-09-30T18:21:05;6.27;;;6.00;;
673;SDS011;319;48.764;9.174;2023-09-30T18:23:32;0.90;;;0.90;;
673;SDS011;319;48.764;9.174;2023-09-30T18:26:00;0.80;;;0.80;;
673;SDS011;319;48.764;9.174;2023-09-30T18:28:27;0.90;;;0.90;;
673;SDS011;319;48.764;9.174;2023-09-30T18:30:56;10.20;;;9.90;;
673;SDS011;319;48.764;9.174;2023-09-30T18:33:23;7.80;;;7.60;;
673;SDS011;319;48.764;9.174;2023-09-30T18:35:50;9.80;;;9.60;;
673;SDS011;319;48.764;9.174;2023-09-30T18:38:18;9.97;;;9.77;;
673;SDS011;319;48.764;9.174;2023-09-30T18:40:45;10.20;;;9.90;;
673;SDS011;319;48.764;9.174;2023-09-30T18:43:14;8.80;;;8.60;;
673;SDS011;319;48.764;9.174;2023-09-30T18:45:41;8.53;;;8.33;;
673;SDS011;319;48.764;9.174;2023-09-30T18:48:08;8.90;;;8.70;;
673;SDS011;319;48.764;9.174;2023-09-30T18:50:39;9.80;;;9.60;;
673;SDS011;319;48.764;9.174;2023-09-30T18:53:07;9.63;;;9.43;;
673;SDS011;319;48.764;9.174;2023-09-30T18:55:35;8.53;;;8.33;;
673;SDS011;319;48.764;9.174;2023-09-30T18:58:03;8.90;;;8.70;;
673;SDS011;319;48.764;9.174;2023-09-30T19:00:31;9.70;;;9.50;;
673;SDS011;319;48.764;9.174;2023-09-30T19:02:58;9.70;;;9.50;;
673;SDS011;319;48.764;9.174;2023-09-30T19:05:25;7.47;;;7.27;;
673;SDS011;319;48.764;9.174;2023-09-30T19:07:52;7.90;;;7.70;;
673;SDS011;319;48.764;9.174;2023-09-30T19:10:19;3.20;;;3.10;;
673;SDS011;319;48.764;9.174;2023-09-30T19:12:46;8.73;;;8.53;;
673;SDS011;319;48.764;9.174;2023-09-30T19:15:13;7.93;;;7.73;;
673;SDS011;319;48.764;9.174;2023-09-30T19:17:41;9.90;;;9.70;;
673;SDS011;319;48.764;9.174;2023-09-30T19:20:09;8.60;;;8.40;;
673;SDS011;319;48.764;9.174;2023-09-30T19:22:37;9.27;;;9.07;;
673;SDS011;319;48.764;9.174;2023-09-30T19:25:04;8.67;;;8.47;;
673;SDS011;319;48.764;9.174;2023-09-30T19:27:31;9.07;;;8.87;;
673;SDS011;319;48.764;9.174;2023-09-30T19:29:58;8.80;;;8.60;;
673;SDS011;319;48.764;9.174;2023-09-30T19:32:25;8.67;;;8.47;;
673;SDS011;319;48.764;9.174;2023-09-30T19:34:54;8.80;;;8.60;;
673;SDS011;319;48.764;9.174;2023-09-30T19:37:20;3.53;;;3.43;;
673;SDS011;319;48.764;9.174;2023-09-30T19:39:47;9.30;;;9.10;;
673;SDS011;319;48.764;9.174;2023-09-30T19:42:14;9.30;;;9.10;;
673;SDS011;319;48.764;9.174;2023-09-30T19:44:41;10.13;;;9.87;;
673;SDS011;319;48.764;9.174;2023-09-30T19:47:09;10.33;;;10.03;;
673;SDS011;319;48.764;9.174;2023-09-30T19:49:36;11.10;;;10.80;;
673;SDS011;319;48.764;9.174;2023-09-30T19:52:04;2.50;;;2.50;;
673;SDS011;319;48.764;9.174;2023-09-30T19:54:33;8.60;;;8.40;;
673;SDS011;319;48.764;9.174;2023-09-30T19:57:00;10.43;;;10.13;;
673;SDS011;319;48.764;9.174;2023-09-30T19:59:27;8.30;;;8.10;;
673;SDS011;319;48.764;9.174;2023-09-30T20:01:54;7.10;;;6.90;;
673;SDS011;319;48.764;9.174;2023-09-30T20:04:22;9.30;;;9.10;;
673;SDS011;319;48.764;9.174;2023-09-30T20:06:48;8.63;;;8.43;;
673;SDS011;319;48.764;9.174;2023-09-30T20:09:17;7.23;;;7.03;;
673;SDS011;319;48.764;9.174;2023-09-30T20:11:44;9.30;;;9.10;;
673;SDS011;319;48.764;9.174;2023-09-30T20:14:11;9.03;;;8.83;;
673;SDS011;319;48.764;9.174;2023-09-30T20:16:38;9.23;;;9.03;;
673;SDS011;319;48.764;9.174;2023-09-30T20:19:06;4.37;;;4.27;;
673;SDS011;319;48.764;9.174;2023-09-30T20:21:32;4.63;;;4.53;;
673;SDS011;319;48.764;9.174;2023-09-30T20:24:01;2.00;;;2.00;;
673;SDS011;319;48.764;9.174;2023-09-30T20:26:31;6.40;;;6.27;;
673;SDS011;319;48.764;9.174;2023-09-30T20:29:00;4.60;;;4.50;;
673;SDS011;319;48.764;9.174;2023-09-30T20:31:27;1.87;;;1.87;;
673;SDS011;319;48.764;9.174;2023-09-30T20:33:54;1.87;;;1.87;;
673;SDS011;319;48.764;9.174;2023-09-30T20:36:20;2.17;;;2.17;;
673;SDS011;319;48.764;9.174;2023-09-30T20:38:47;1.50;;;1.50;;
673;SDS011;319;48.764;9.174;2023-09-30T20:41:15;2.60;;;2.60;;
673;SDS011;319;48.764;9.174;2023-09-30T20:43:43;3.73;;;3.63;;
673;SDS011;319;48.764;9.174;2023-09-30T20:46:10;1.27;;;1.27;;
673;SDS011;319;48.764;9.174;2023-09-30T20:48:38;0.90;;;0.90;;
673;SDS011;319;48.764;9.174;2023-09-30T20:51:07;1.10;;;1.10;;
673;SDS011;319;48.764;9.174;2023-09-30T20:53:34;2.50;;;2.50;;
673;SDS011;319;48.764;9.174;2023-09-30T20:56:01;2.67;;;2.67;;
673;SDS011;319;48.764;9.174;2023-09-30T20:58:28;2.50;;;2.50;;
673;SDS011;319;48.764;9.174;2023-09-30T21:00:56;5.63;;;4.90;;
673;SDS011;319;48.764;9.174;2023-09-30T21:03:23;3.10;;;3.00;;
673;SDS011;319;48.764;9.174;2023-09-30T21:05:49;3.27;;;3.17;;
673;SDS011;319;48.764;9.174;2023-09-30T21:08:18;3.60;;;3.50;;
673;SDS011;319;48.764;9.174;2023-09-30T21:10:46;2.60;;;2.60;;
673;SDS011;319;48.764;9.174;2023-09-30T21:13:13;3.30;;;3.20;;
673;SDS011;319;48.764;9.174;2023-09-30T21:15:40;5.20;;;5.10;;
673;SDS011;319;48.764;9.174;2023-09-30T21:18:08;2.37;;;2.37;;
673;SDS011;319;48.764;9.174;2023-09-30T21:20:35;9.77;;;9.57;;
673;SDS011;319;48.764;9.174;2023-09-30T21:23:01;8.23;;;8.03;;
673;SDS011;319;48.764;9.174;2023-09-30T21:25:28;8.60;;;8.40;;
673;SDS011;319;48.764;9.174;2023-09-30T21:27:56;8.40;;;8.20;;
673;SDS011;319;48.764;9.174;2023-09-30T21:30:23;8.03;;;7.83;;
673;SDS011;319;48.764;9.174;2023-09-30T21:32:50;8.80;;;8.60;;
673;SDS011;319;48.764;9.174;2023-09-30T21:35:18;7.13;;;6.93;;
673;SDS011;319;48.764;9.174;2023-09-30T21:37:46;11.17;;;10.87;;
673;SDS011;319;48.764;9.174;2023-09-30T21:40:13;6.80;;;6.60;;
673;SDS011;319;48.764;9.174;2023-09-30T21:42:40;7.90;;;7.70;;
673;SDS011;319;48.764;9.174;2023-09-30T21:45:07;10.83;;;10.53;;
673;SDS011;319;48.764;9.174;2023-09-30T21:47:35;8.37;;;8.17;;
673;SDS011;319;48.764;9.174;2023-09-30T21:50:02;10.13;;;9.90;;
673;SDS011;319;48.764;9.174;2023-09-30T21:52:31;9.53;;;9.33;;
673;SDS011;319;48.764;9.174;2023-09-30T21:54:57;9.37;;;9.17;;
673;SDS011;319;48.764;9.174;2023-09-30T21:57:24;7.10;;;6.90;;
673;SDS011;319;48.764;9.174;2023-09-30T21:59:51;9.27;;;9.07;;
673;SDS011;319;48.764;9.174;2023-09-30T22:02:18;8.93;;;8.73;;
673;SDS011;319;48.764;9.174;2023-09-30T22:04:44;9.60;;;9.40;;
673;SDS011;319;48.764;9.174;2023-09-30T22:07:11;7.80;;;7.60;;
673;SDS011;319;48.764;9.174;2023-09-30T22:09:39;5.80;;;5.70;;
673;SDS011;319;48.764;9.174;2023-09-30T22:12:06;7.10;;;6.90;;
673;SDS011;319;48.764;9.174;2023-09-30T22:14:33;9.27;;;9.07;;
673;SDS011;319;48.764;9.174;2023-09-30T22:17:00;11.33;;;11.03;;
673;SDS011;319;48.764;9.174;2023-09-30T22:19:27;8.13;;;7.93;;
673;SDS011;319;48.764;9.174;2023-09-30T22:21:54;11.33;;;11.03;;
673;SDS011;319;48.764;9.174;2023-09-30T22:24:20;7.90;;;7.70;;
673;SDS011;319;48.764;9.174;2023-09-30T22:26:49;11.00;;;10.70;;
673;SDS011;319;48.764;9.174;2023-09-30T22:29:15;10.43;;;10.13;;
673;SDS011;319;48.764;9.174;2023-09-30T22:31:42;11.77;;;11.47;;
673;SDS011;319;48.764;9.174;2023-09-30T22:34:10;9.20;;;9.00;;
673;SDS011;319;48.764;9.174;2023-09-30T22:36:37;9.17;;;8.97;;
673;SDS011;319;48.764;9.174;2023-09-30T22:39:04;8.67;;;8.47;;
673;SDS011;319;48.764;9.174;2023-09-30T22:41:30;9.10;;;8.90;;
673;SDS011;319;48.764;9.174;2023-09-30T22:43:58;7.00;;;6.80;;
673;SDS011;319;48.764;9.174;2023-09-30T22:46:25;8.50;;;8.30;;
673;SDS011;319;48.764;9.174;2023-09-30T22:48:52;5.97;;;5.87;;
673;SDS011;319;48.764;9.174;2023-09-30T22:51:21;6.10;;;6.00;;
673;SDS011;319;48.764;9.174;2023-09-30T22:53:48;4.80;;;4.70;;
673;SDS011;319;48.764;9.174;2023-09-30T22:56:15;6.50;;;6.30;;
673;SDS011;319;48.764;9.174;2023-09-30T22:58:45;7.00;;;6.80;;
673;SDS011;319;48.764;9.174;2023-09-30T23:01:21;5.67;;;5.57;;
673;SDS011;319;48.764;9.174;2023-09-30T23:03:48;6.87;;;6.67;;
673;SDS011;319;48.764;9.174;2023-09-30T23:06:17;6.10;;;6.00;;
673;SDS011;319;48.764;9.174;2023-09-30T23:08:44;2.43;;;2.43;;
673;SDS011;319;48.764;9.174;2023-09-30T23:11:14;2.10;;;2.10;;
673;SDS011;319;48.764;9.174;2023-09-30T23:13:42;1.90;;;1.90;;
673;SDS011;319;48.764;9.174;2023-09-30T23:16:10;1.97;;;1.97;;
673;SDS011;319;48.764;9.174;2023-09-30T23:18:39;2.30;;;2.30;;
673;SDS011;319;48.764;9.174;2023-09-30T23:21:05;2.40;;;2.40;;
673;SDS011;319;48.764;9.174;2023-09-30T23:23:34;2.30;;;2.30;;
673;SDS011;319;48.764;9.174;2023-09-30T23:26:01;2.10;;;2.10;;
673;SDS011;319;48.764;9.174;2023-09-30T23:28:29;2.20;;;2.20;;
673;SDS011;319;48.764;9.174;2023-09-30T23:31:00;2.20;;;2.20;;
673;SDS011;319;48.764;9.174;2023-09-30T23:33:27;2.00;;;2.00;;
673;SDS011;319;48.764;9.174;2023-09-30T23:35:55;2.10;;;2.10;;
673;SDS011;319;48.764;9.174;2023-09-30T23:38:22;1.80;;;1.80;;
673;SDS011;319;48.764;9.174;2023-09-30T23:40:49;2.00;;;2.00;;
673;SDS011;319;48.764;9.174;2023-09-30T23:43:16;2.00;;;2.00;;
673;SDS011;319;48.764;9.174;2023-09-30T23:45:43;2.00;;;2.00;;
673;SDS011;319;48.764;9.174;2023-09-30T23:48:12;1.90;;;1.90;;
673;SDS011;319;48.764;9.174;2023-09-30T23:50:41;1.80;;;1.80;;
673;SDS011;319;48.764;9.174;2023-09-30T23:53:10;1.77;;;1.77;;
673;SDS011;319;48.764;9.174;2023-09-30T23:55:38;1.80;;;1.80;;
673;SDS011;319;48.764;9.174;2023-09-30T23:58:05;1.80;;;1.80;;
